Terminal Aerodrome Forecast
Issued by NWS

Home | Current Version | Previous Version | Text Only | Print | Product List | Glossary On
Versions: 1 2 3 4 5 6 7 8 9 10 11 12 13 14 15
000
FTUS46 KPDT 071731
TAFYKM
TAF
KYKM 071731Z 0718/0818 30009KT P6SM SCT300
     FM072000 09005KT P6SM SCT300
     FM080200 30010KT P6SM SCT090 SCT250=

USA.gov is the U.S. government's official web portal to all federal, state and local government web resources and services.